Aviation Digital Data Service (ADDS)

Output produced by TAFs form (0206 UTC 19 July 2018)
found at http://www.aviationweather.gov/adds/tafs/
 
METAR text: RJBE 190100Z 15004KT 9999 FEW030 31/25 Q1010
Conditions at: RJBE (KOBE , JP) observed 0100 UTC 19 July 2018
Temperature: 31.0°C (88°F)
Dewpoint: 25.0°C (77°F) [RH = 71%]
Pressure (altimeter): 29.82 inches Hg (1010.0 mb)
Winds: from the SSE (150 degrees) at 5 MPH (4 knots; 2.1 m/s)
Visibility: 6 or more miles (10+ km)
Ceiling: at least 12,000 feet AGL
Clouds: few clouds at 3000 feet AGL
Weather: no significant weather observed at this time